createdAt,value
2019-01-29T00:00:50.932Z,6.90
2019-01-29T00:01:50.883Z,6.80
2019-01-29T00:02:51.108Z,6.40
2019-01-29T00:03:51.093Z,6.10
2019-01-29T00:04:50.909Z,7.50
2019-01-29T00:05:50.887Z,6.70
2019-01-29T00:06:50.863Z,5.60
2019-01-29T00:07:50.852Z,6.60
2019-01-29T00:08:51.099Z,6.80
2019-01-29T00:09:51.064Z,5.90
2019-01-29T00:10:51.067Z,6.40
2019-01-29T00:11:51.079Z,5.90
2019-01-29T00:12:51.051Z,6.40
2019-01-29T00:13:51.067Z,6.00
2019-01-29T00:14:50.838Z,6.00
2019-01-29T00:15:51.057Z,6.30
2019-01-29T00:16:51.046Z,6.20
2019-01-29T00:17:51.029Z,5.20
2019-01-29T00:18:50.771Z,6.20
2019-01-29T00:19:50.801Z,6.10
2019-01-29T00:20:51.054Z,6.10
2019-01-29T00:21:50.793Z,5.80
2019-01-29T00:22:50.999Z,6.20
2019-01-29T00:23:50.777Z,5.50
2019-01-29T00:24:50.997Z,5.60
2019-01-29T00:25:50.954Z,5.40
2019-01-29T00:26:50.713Z,6.20
2019-01-29T00:27:50.978Z,6.30
2019-01-29T00:28:50.974Z,5.70
2019-01-29T00:29:50.689Z,6.20
2019-01-29T00:30:50.687Z,6.40
2019-01-29T00:31:50.722Z,5.60
2019-01-29T00:32:51.073Z,6.60
2019-01-29T00:33:50.708Z,6.30
2019-01-29T00:34:50.698Z,6.20
2019-01-29T00:35:51.029Z,6.10
2019-01-29T00:36:50.648Z,6.70
2019-01-29T00:37:51.010Z,5.60
2019-01-29T00:38:50.633Z,5.80
2019-01-29T00:39:50.628Z,6.20
2019-01-29T00:40:50.915Z,6.80
2019-01-29T00:41:50.913Z,6.70
2019-01-29T00:42:50.892Z,6.80
2019-01-29T00:43:50.893Z,6.30
2019-01-29T00:44:50.816Z,6.20
2019-01-29T00:45:50.847Z,6.40
2019-01-29T00:46:50.617Z,6.60
2019-01-29T00:47:50.796Z,6.70
2019-01-29T00:48:50.816Z,6.60
2019-01-29T00:49:50.556Z,6.40
2019-01-29T00:50:50.783Z,6.00
2019-01-29T00:51:50.584Z,7.10
2019-01-29T00:52:50.823Z,6.00
2019-01-29T00:53:50.822Z,6.60
2019-01-29T00:54:50.784Z,6.50
2019-01-29T00:55:50.515Z,5.60
2019-01-29T00:56:50.540Z,6.00
2019-01-29T00:57:50.771Z,6.10
2019-01-29T00:58:50.544Z,6.30
2019-01-29T00:59:50.526Z,6.20
2019-01-29T01:00:50.745Z,6.90
2019-01-29T01:01:50.514Z,6.80
2019-01-29T01:02:50.705Z,7.30
2019-01-29T01:03:50.511Z,6.90
2019-01-29T01:04:50.495Z,7.00
2019-01-29T01:05:50.671Z,6.40
2019-01-29T01:06:50.482Z,6.70
2019-01-29T01:07:50.726Z,6.80
2019-01-29T01:08:50.698Z,5.80
2019-01-29T01:09:56.998Z,7.50
2019-01-29T01:10:50.667Z,7.10
2019-01-29T01:11:50.698Z,7.70
2019-01-29T01:12:50.662Z,6.90
2019-01-29T01:13:50.446Z,7.90
2019-01-29T01:14:50.617Z,7.00
2019-01-29T01:16:50.381Z,6.90
2019-01-29T01:17:51.432Z,7.00
2019-01-29T01:18:50.395Z,7.40
2019-01-29T01:19:50.585Z,7.00
2019-01-29T01:20:50.577Z,7.10
2019-01-29T01:21:50.362Z,6.40
2019-01-29T01:22:51.488Z,6.70
2019-01-29T01:23:50.617Z,6.90
2019-01-29T01:24:50.320Z,6.50
2019-01-29T01:25:50.571Z,6.00
2019-01-29T01:26:50.577Z,6.00
2019-01-29T01:27:50.554Z,6.10
2019-01-29T01:28:50.557Z,5.80
2019-01-29T01:29:50.678Z,6.30
2019-01-29T01:30:50.323Z,6.10
2019-01-29T01:31:50.272Z,6.60
2019-01-29T01:32:50.270Z,6.60
2019-01-29T01:33:50.259Z,5.90
2019-01-29T01:34:50.244Z,5.60
2019-01-29T01:35:50.606Z,6.80
2019-01-29T01:36:50.585Z,7.00
2019-01-29T01:37:50.244Z,6.40
2019-01-29T01:38:50.250Z,6.10
2019-01-29T01:39:50.267Z,6.90
2019-01-29T01:40:50.217Z,6.50
2019-01-29T01:41:50.214Z,5.90
2019-01-29T01:42:50.463Z,6.30
2019-01-29T01:43:50.200Z,6.10
2019-01-29T01:44:50.406Z,6.10
2019-01-29T01:45:50.190Z,6.30
2019-01-29T01:46:50.202Z,5.70
2019-01-29T01:47:50.390Z,5.90
2019-01-29T01:48:50.152Z,5.90
2019-01-29T01:49:50.177Z,6.10
2019-01-29T01:50:50.439Z,6.00
2019-01-29T01:51:50.354Z,5.80
2019-01-29T01:52:50.161Z,5.50
2019-01-29T01:53:50.386Z,6.10
2019-01-29T01:54:50.114Z,5.80
2019-01-29T01:55:50.109Z,5.50
2019-01-29T01:56:50.372Z,5.70
2019-01-29T01:57:50.105Z,5.50
2019-01-29T01:58:50.352Z,5.90
2019-01-29T01:59:50.317Z,5.60
2019-01-29T02:00:50.339Z,5.50
2019-01-29T02:01:50.105Z,5.50
2019-01-29T02:02:50.351Z,5.50
2019-01-29T02:03:50.922Z,5.30
2019-01-29T02:04:50.684Z,5.10
2019-01-29T02:05:50.294Z,5.00
2019-01-29T02:06:50.292Z,5.30
2019-01-29T02:07:50.320Z,5.00
2019-01-29T02:08:50.258Z,5.40
2019-01-29T02:09:50.008Z,5.10
2019-01-29T02:10:50.258Z,4.60
2019-01-29T02:11:50.267Z,4.90
2019-01-29T02:12:50.250Z,5.10
2019-01-29T02:13:50.023Z,5.00
2019-01-29T02:14:50.213Z,5.30
2019-01-29T02:15:50.015Z,5.10
2019-01-29T02:16:50.006Z,5.80
2019-01-29T02:17:50.241Z,4.80
2019-01-29T02:18:49.957Z,5.00
2019-01-29T02:19:50.237Z,5.40
2019-01-29T02:20:50.223Z,5.50
2019-01-29T02:21:50.164Z,5.30
2019-01-29T02:22:49.963Z,4.80
2019-01-29T02:23:50.152Z,5.10
2019-01-29T02:24:49.919Z,5.10
2019-01-29T02:25:50.199Z,5.90
2019-01-29T02:26:49.931Z,5.00
2019-01-29T02:27:49.926Z,5.40
2019-01-29T02:28:49.919Z,4.90
2019-01-29T02:29:50.159Z,5.40
2019-01-29T02:30:50.088Z,5.30
2019-01-29T02:31:50.159Z,4.70
2019-01-29T02:32:50.142Z,5.20
2019-01-29T02:33:49.890Z,4.50
2019-01-29T02:34:50.082Z,5.10
2019-01-29T02:35:50.125Z,4.80
2019-01-29T02:36:50.086Z,5.20
2019-01-29T02:37:50.046Z,5.50
2019-01-29T02:38:49.816Z,4.60
2019-01-29T02:39:49.841Z,5.20
2019-01-29T02:40:50.029Z,5.40
2019-01-29T02:41:49.790Z,5.90
2019-01-29T02:42:49.820Z,5.50
2019-01-29T02:43:50.080Z,6.10
2019-01-29T02:44:49.991Z,6.00
2019-01-29T02:45:50.024Z,4.90
2019-01-29T02:46:49.986Z,4.90
2019-01-29T02:47:50.010Z,5.20
2019-01-29T02:48:50.044Z,5.60
2019-01-29T02:49:50.004Z,4.90
2019-01-29T02:50:49.770Z,5.60
2019-01-29T02:51:49.751Z,5.00
2019-01-29T02:52:49.764Z,6.60
2019-01-29T02:53:49.739Z,7.10
2019-01-29T02:54:49.738Z,7.00
2019-01-29T02:55:49.987Z,7.00
2019-01-29T02:56:49.722Z,7.50
2019-01-29T02:57:49.985Z,7.00
2019-01-29T02:58:49.937Z,7.10
2019-01-29T02:59:49.917Z,6.80
2019-01-29T03:00:49.932Z,6.70
2019-01-29T03:01:49.696Z,6.60
2019-01-29T03:02:50.379Z,7.00
2019-01-29T03:03:50.039Z,6.80
2019-01-29T03:04:49.668Z,6.50
2019-01-29T03:05:49.654Z,6.50
2019-01-29T03:06:49.633Z,6.40
2019-01-29T03:07:49.997Z,6.30
2019-01-29T03:08:49.745Z,5.20
2019-01-29T03:09:49.635Z,5.70
2019-01-29T03:10:49.589Z,5.00
2019-01-29T03:11:49.890Z,5.50
2019-01-29T03:12:49.835Z,5.70
2019-01-29T03:13:49.577Z,4.90
2019-01-29T03:14:49.864Z,5.30
2019-01-29T03:15:49.827Z,4.60
2019-01-29T03:16:49.556Z,5.20
2019-01-29T03:17:49.772Z,5.20
2019-01-29T03:18:49.545Z,5.20
2019-01-29T03:19:49.528Z,4.80
2019-01-29T03:20:49.788Z,4.70
2019-01-29T03:21:49.802Z,5.20
2019-01-29T03:22:49.755Z,5.30
2019-01-29T03:23:49.514Z,6.00
2019-01-29T03:24:49.548Z,5.80
2019-01-29T03:25:49.496Z,4.50
2019-01-29T03:26:49.747Z,4.80
2019-01-29T03:27:49.474Z,4.30
2019-01-29T03:28:49.478Z,4.60
2019-01-29T03:29:49.753Z,4.00
2019-01-29T03:30:49.499Z,4.80
2019-01-29T03:31:49.931Z,5.10
2019-01-29T03:32:49.876Z,4.50
2019-01-29T03:33:49.441Z,4.10
2019-01-29T03:34:49.729Z,4.20
2019-01-29T03:35:49.682Z,4.50
2019-01-29T03:36:49.664Z,4.40
2019-01-29T03:37:49.697Z,4.80
2019-01-29T03:38:49.432Z,4.40
2019-01-29T03:39:49.650Z,4.80
2019-01-29T03:40:49.392Z,5.10
2019-01-29T03:41:49.408Z,4.00
2019-01-29T03:42:49.366Z,4.80
2019-01-29T03:43:49.375Z,4.40
2019-01-29T03:44:49.389Z,4.40
2019-01-29T03:45:49.403Z,4.00
2019-01-29T03:46:49.340Z,4.30
2019-01-29T03:47:49.384Z,4.40
2019-01-29T03:48:49.713Z,4.30
2019-01-29T03:49:49.327Z,4.70
2019-01-29T03:50:49.356Z,5.00
2019-01-29T03:51:49.313Z,4.30
2019-01-29T03:52:49.306Z,4.70
2019-01-29T03:53:49.341Z,4.50
2019-01-29T03:54:49.299Z,4.50
2019-01-29T03:55:49.297Z,4.30
2019-01-29T03:56:49.587Z,5.40
2019-01-29T03:57:49.567Z,4.60
2019-01-29T03:58:49.266Z,3.90
2019-01-29T03:59:49.524Z,4.60
2019-01-29T04:00:49.287Z,4.40
2019-01-29T04:01:49.551Z,4.30
2019-01-29T04:02:49.509Z,4.70
2019-01-29T04:03:49.521Z,4.40
2019-01-29T04:04:49.529Z,4.70
2019-01-29T04:05:49.277Z,4.80
2019-01-29T04:06:49.213Z,4.40
2019-01-29T04:07:49.492Z,4.40
2019-01-29T04:08:49.460Z,5.80
2019-01-29T04:09:49.450Z,5.10
2019-01-29T04:10:49.449Z,4.60
2019-01-29T04:11:49.226Z,5.00
2019-01-29T04:12:49.450Z,5.20
2019-01-29T04:13:49.453Z,4.70
2019-01-29T04:14:49.423Z,4.20
2019-01-29T04:15:49.153Z,4.90
2019-01-29T04:16:49.144Z,5.00
2019-01-29T04:17:49.173Z,4.40
2019-01-29T04:18:49.365Z,4.50
2019-01-29T04:19:49.116Z,4.40
2019-01-29T04:20:49.394Z,4.40
2019-01-29T04:21:49.134Z,4.60
2019-01-29T04:22:49.406Z,4.50
2019-01-29T04:23:49.145Z,4.00
2019-01-29T04:24:49.091Z,4.30
2019-01-29T04:25:49.123Z,4.40
2019-01-29T04:26:49.076Z,3.70
2019-01-29T04:27:49.114Z,4.20
2019-01-29T04:28:49.329Z,4.10
2019-01-29T04:29:49.280Z,4.00
2019-01-29T04:30:49.072Z,4.50
2019-01-29T04:31:49.340Z,4.40
2019-01-29T04:32:49.064Z,4.40
2019-01-29T04:33:49.061Z,4.00
2019-01-29T04:34:49.024Z,3.80
2019-01-29T04:35:49.310Z,4.00
2019-01-29T04:36:49.034Z,4.10
2019-01-29T04:37:49.092Z,4.30
2019-01-29T04:38:49.047Z,3.40
2019-01-29T04:39:49.858Z,3.60
2019-01-29T04:40:49.019Z,3.70
2019-01-29T04:41:49.024Z,4.20
2019-01-29T04:42:49.768Z,3.80
2019-01-29T04:43:49.225Z,4.10
2019-01-29T04:44:49.178Z,4.50
2019-01-29T04:45:48.986Z,4.60
2019-01-29T04:46:49.180Z,3.90
2019-01-29T04:47:49.208Z,3.70
2019-01-29T04:48:48.963Z,4.30
2019-01-29T04:49:48.929Z,4.00
2019-01-29T04:50:49.170Z,4.40
2019-01-29T04:51:49.146Z,4.20
2019-01-29T04:52:48.904Z,4.10
2019-01-29T04:53:57.089Z,4.00
2019-01-29T04:54:49.157Z,3.70
2019-01-29T04:55:49.136Z,3.70
2019-01-29T04:56:48.903Z,3.80
2019-01-29T04:57:48.863Z,4.80
2019-01-29T04:58:48.858Z,4.30
2019-01-29T04:59:48.886Z,4.00
2019-01-29T05:00:48.843Z,4.10
2019-01-29T05:01:49.119Z,3.90
2019-01-29T05:02:49.089Z,4.30
2019-01-29T05:03:49.089Z,4.00
2019-01-29T05:04:49.067Z,4.20
2019-01-29T05:05:49.104Z,4.60
2019-01-29T05:06:49.797Z,4.50
2019-01-29T05:07:49.047Z,4.80
2019-01-29T05:08:48.783Z,5.60
2019-01-29T05:09:49.032Z,6.50
2019-01-29T05:10:48.995Z,5.20
2019-01-29T05:11:49.030Z,4.70
2019-01-29T05:12:48.796Z,4.80
2019-01-29T05:13:49.007Z,4.80
2019-01-29T05:14:48.779Z,4.40
2019-01-29T05:15:48.784Z,4.50
2019-01-29T05:16:48.770Z,4.30
2019-01-29T05:17:48.757Z,3.80
2019-01-29T05:18:48.976Z,4.80
2019-01-29T05:19:48.967Z,4.30
2019-01-29T05:20:48.974Z,4.70
2019-01-29T05:21:48.956Z,4.20
2019-01-29T05:22:48.731Z,4.40
2019-01-29T05:23:48.940Z,4.40
2019-01-29T05:24:48.917Z,4.10
2019-01-29T05:25:48.931Z,4.60
2019-01-29T05:26:48.909Z,4.50
2019-01-29T05:27:48.671Z,4.20
2019-01-29T05:28:48.918Z,4.30
2019-01-29T05:29:48.690Z,3.90
2019-01-29T05:30:48.867Z,4.50
2019-01-29T05:31:48.918Z,4.40
2019-01-29T05:32:48.658Z,4.00
2019-01-29T05:33:48.619Z,4.50
2019-01-29T05:34:48.620Z,3.70
2019-01-29T05:35:48.834Z,4.30
2019-01-29T05:36:48.601Z,4.00
2019-01-29T05:37:48.629Z,4.60
2019-01-29T05:38:48.588Z,4.50
2019-01-29T05:39:48.585Z,4.70
2019-01-29T05:40:48.615Z,4.00
2019-01-29T05:41:48.792Z,4.90
2019-01-29T05:42:48.838Z,4.20
2019-01-29T05:43:48.596Z,4.70
2019-01-29T05:44:48.544Z,4.20
2019-01-29T05:45:48.821Z,4.20
2019-01-29T05:46:48.534Z,4.10
2019-01-29T05:47:48.560Z,4.30
2019-01-29T05:48:48.776Z,4.20
2019-01-29T05:49:48.520Z,3.50
2019-01-29T05:50:48.873Z,3.80
2019-01-29T05:51:48.904Z,3.70
2019-01-29T05:52:48.539Z,3.90
2019-01-29T05:53:48.863Z,4.00
2019-01-29T05:54:48.882Z,3.60
2019-01-29T05:55:48.869Z,4.30
2019-01-29T05:56:48.879Z,4.40
2019-01-29T05:57:48.712Z,3.80
2019-01-29T05:58:48.747Z,3.40
2019-01-29T05:59:48.704Z,3.90
2019-01-29T06:00:48.693Z,4.50
2019-01-29T06:01:48.456Z,3.50
2019-01-29T06:02:48.790Z,4.40
2019-01-29T06:03:48.713Z,4.30
2019-01-29T06:04:48.676Z,3.70
2019-01-29T06:05:48.413Z,3.80
2019-01-29T06:06:48.396Z,3.80
2019-01-29T06:07:48.617Z,3.60
2019-01-29T06:08:48.640Z,3.20
2019-01-29T06:09:48.383Z,3.60
2019-01-29T06:10:48.439Z,3.10
2019-01-29T06:11:48.395Z,3.50
2019-01-29T06:12:48.389Z,4.00
2019-01-29T06:13:48.345Z,3.30
2019-01-29T06:14:48.598Z,3.60
2019-01-29T06:15:48.322Z,3.40
2019-01-29T06:16:48.324Z,3.20
2019-01-29T06:17:48.598Z,3.50
2019-01-29T06:18:48.308Z,4.30
2019-01-29T06:19:48.590Z,3.70
2019-01-29T06:20:48.298Z,3.60
2019-01-29T06:21:48.557Z,3.50
2019-01-29T06:22:48.533Z,3.80
2019-01-29T06:23:48.273Z,3.60
2019-01-29T06:24:48.276Z,3.20
2019-01-29T06:25:48.530Z,3.60
2019-01-29T06:26:48.513Z,4.10
2019-01-29T06:27:48.242Z,3.60
2019-01-29T06:28:48.583Z,3.10
2019-01-29T06:29:48.486Z,3.60
2019-01-29T06:30:48.547Z,3.30
2019-01-29T06:31:48.264Z,3.90
2019-01-29T06:32:48.477Z,3.50
2019-01-29T06:33:48.493Z,5.10
2019-01-29T06:34:48.199Z,5.20
2019-01-29T06:35:48.423Z,5.00
2019-01-29T06:36:48.412Z,4.40
2019-01-29T06:37:48.424Z,5.00
2019-01-29T06:38:48.408Z,5.10
2019-01-29T06:39:48.170Z,5.10
2019-01-29T06:40:48.517Z,4.90
2019-01-29T06:41:48.538Z,5.00
2019-01-29T06:42:48.188Z,4.50
2019-01-29T06:43:48.554Z,3.90
2019-01-29T06:44:48.530Z,4.10
2019-01-29T06:45:48.164Z,4.30
2019-01-29T06:46:48.164Z,3.80
2019-01-29T06:47:48.521Z,4.40
2019-01-29T06:48:49.165Z,4.20
2019-01-29T06:49:48.105Z,4.00
2019-01-29T06:50:48.391Z,3.40
2019-01-29T06:51:48.344Z,4.40
2019-01-29T06:52:48.349Z,3.90
2019-01-29T06:53:48.113Z,3.70
2019-01-29T06:54:48.077Z,3.90
2019-01-29T06:55:48.343Z,3.90
2019-01-29T06:56:48.280Z,3.90
2019-01-29T06:57:55.236Z,3.90
2019-01-29T06:58:48.300Z,3.50
2019-01-29T06:59:48.301Z,4.00
2019-01-29T07:00:48.038Z,3.90
2019-01-29T07:01:48.289Z,3.60
2019-01-29T07:02:48.284Z,4.00
2019-01-29T07:03:48.298Z,3.70
2019-01-29T07:04:48.000Z,3.90
2019-01-29T07:05:48.024Z,3.50
2019-01-29T07:06:48.263Z,3.40
2019-01-29T07:07:47.985Z,3.80
2019-01-29T07:08:47.971Z,3.30
2019-01-29T07:09:47.969Z,3.90
2019-01-29T07:10:48.191Z,4.10
2019-01-29T07:11:47.950Z,3.90
2019-01-29T07:12:47.959Z,3.50
2019-01-29T07:13:48.192Z,4.00
2019-01-29T07:14:48.190Z,3.90
2019-01-29T07:15:47.934Z,3.50
2019-01-29T07:16:48.191Z,4.00
2019-01-29T07:17:47.950Z,4.10
2019-01-29T07:18:47.914Z,4.30
2019-01-29T07:19:48.198Z,4.20
2019-01-29T07:20:48.161Z,4.30
2019-01-29T07:21:48.194Z,4.30
2019-01-29T07:22:47.906Z,5.00
2019-01-29T07:23:48.091Z,4.10
2019-01-29T07:24:47.866Z,4.40
2019-01-29T07:25:48.093Z,4.50
2019-01-29T07:26:48.116Z,4.10
2019-01-29T07:27:47.884Z,4.00
2019-01-29T07:28:47.944Z,4.50
2019-01-29T07:29:48.067Z,4.20
2019-01-29T07:30:47.823Z,4.60
2019-01-29T07:31:48.121Z,4.20
2019-01-29T07:32:48.079Z,3.40
2019-01-29T07:33:48.101Z,4.30
2019-01-29T07:34:48.059Z,4.20
2019-01-29T07:35:47.789Z,3.70
2019-01-29T07:36:48.015Z,4.60
2019-01-29T07:37:47.826Z,4.40
2019-01-29T07:38:48.035Z,4.30
2019-01-29T07:39:47.799Z,3.90
2019-01-29T07:40:48.051Z,4.30
2019-01-29T07:41:47.779Z,3.90
2019-01-29T07:42:47.743Z,4.60
2019-01-29T07:43:47.752Z,3.70
2019-01-29T07:44:48.021Z,4.20
2019-01-29T07:45:47.755Z,3.70
2019-01-29T07:46:47.720Z,3.80
2019-01-29T07:47:47.980Z,3.60
2019-01-29T07:48:47.927Z,3.90
2019-01-29T07:49:47.951Z,4.20
2019-01-29T07:50:47.950Z,3.80
2019-01-29T07:51:47.678Z,4.20
2019-01-29T07:52:47.968Z,3.70
2019-01-29T07:53:47.702Z,3.90
2019-01-29T07:54:51.215Z,4.10
2019-01-29T07:55:47.694Z,4.30
2019-01-29T07:56:47.944Z,4.00
2019-01-29T07:57:47.677Z,4.00
2019-01-29T07:58:49.272Z,3.60
2019-01-29T07:59:47.674Z,4.00
2019-01-29T08:00:47.875Z,4.30
2019-01-29T08:01:47.662Z,4.00
2019-01-29T08:02:47.658Z,4.30
2019-01-29T08:03:47.638Z,3.30
2019-01-29T08:04:47.632Z,4.10
2019-01-29T08:05:47.859Z,3.40
2019-01-29T08:06:47.617Z,4.10
2019-01-29T08:07:47.877Z,3.40
2019-01-29T08:08:47.863Z,4.00
2019-01-29T08:09:47.573Z,3.60
2019-01-29T08:10:47.550Z,4.20
2019-01-29T08:11:47.556Z,3.60
2019-01-29T08:12:47.583Z,3.70
2019-01-29T08:13:47.828Z,3.20
2019-01-29T08:14:47.775Z,3.90
2019-01-29T08:15:47.800Z,3.90
2019-01-29T08:16:47.781Z,4.60
2019-01-29T08:17:47.788Z,4.20
2019-01-29T08:18:47.721Z,3.80
2019-01-29T08:19:47.492Z,4.00
2019-01-29T08:20:47.517Z,3.90
2019-01-29T08:21:48.161Z,3.60
2019-01-29T08:22:47.478Z,4.10
2019-01-29T08:23:47.737Z,4.10
2019-01-29T08:24:51.920Z,3.70
2019-01-29T08:25:48.165Z,3.70
2019-01-29T08:26:47.748Z,3.90
2019-01-29T08:27:47.455Z,3.00
2019-01-29T08:28:47.768Z,3.20
2019-01-29T08:29:47.462Z,3.70
2019-01-29T08:30:48.056Z,3.30
2019-01-29T08:31:47.423Z,3.70
2019-01-29T08:32:47.635Z,3.80
2019-01-29T08:33:47.412Z,3.50
2019-01-29T08:34:47.726Z,3.50
2019-01-29T08:35:47.413Z,3.80
2019-01-29T08:36:47.615Z,3.50
2019-01-29T08:37:47.633Z,3.90
2019-01-29T08:38:47.397Z,3.50
2019-01-29T08:39:47.403Z,4.10
2019-01-29T08:40:47.358Z,3.60
2019-01-29T08:41:47.636Z,3.50
2019-01-29T08:42:47.345Z,4.10
2019-01-29T08:43:47.631Z,3.30
2019-01-29T08:44:47.325Z,3.50
2019-01-29T08:45:47.348Z,3.70
2019-01-29T08:46:47.315Z,3.80
2019-01-29T08:47:47.302Z,4.00
2019-01-29T08:48:47.297Z,3.90
2019-01-29T08:49:47.297Z,4.10
2019-01-29T08:50:47.321Z,3.30
2019-01-29T08:51:47.540Z,3.10
2019-01-29T08:52:47.267Z,2.90
2019-01-29T08:53:47.300Z,3.30
2019-01-29T08:54:47.263Z,3.30
2019-01-29T08:55:47.470Z,3.60
2019-01-29T08:56:47.465Z,3.40
2019-01-29T08:57:47.504Z,3.40
2019-01-29T08:58:47.260Z,4.10
2019-01-29T08:59:47.464Z,3.20
2019-01-29T09:00:47.482Z,3.00
2019-01-29T09:01:47.222Z,3.40
2019-01-29T09:02:47.914Z,3.10
2019-01-29T09:03:47.201Z,3.40
2019-01-29T09:04:47.477Z,3.10
2019-01-29T09:05:47.186Z,3.30
2019-01-29T09:06:47.188Z,3.70
2019-01-29T09:07:47.204Z,2.90
2019-01-29T09:08:47.436Z,3.30
2019-01-29T09:09:47.421Z,3.40
2019-01-29T09:10:47.410Z,3.60
2019-01-29T09:11:47.403Z,3.30
2019-01-29T09:12:47.437Z,3.30
2019-01-29T09:13:47.173Z,3.50
2019-01-29T09:14:47.139Z,3.20
2019-01-29T09:15:47.374Z,3.80
2019-01-29T09:16:47.334Z,3.50
2019-01-29T09:17:47.363Z,3.00
2019-01-29T09:18:47.386Z,3.30
2019-01-29T09:19:47.322Z,3.20
2019-01-29T09:20:47.378Z,3.50
2019-01-29T09:21:47.343Z,4.00
2019-01-29T09:22:47.072Z,3.40
2019-01-29T09:23:47.323Z,2.80
2019-01-29T09:24:47.055Z,3.40
2019-01-29T09:26:47.076Z,4.00
2019-01-29T09:27:47.317Z,4.40
2019-01-29T09:28:47.133Z,3.30
2019-01-29T09:29:47.284Z,4.10
2019-01-29T09:30:47.305Z,3.90
2019-01-29T09:31:47.297Z,4.60
2019-01-29T09:32:47.266Z,4.00
2019-01-29T09:33:47.254Z,3.80
2019-01-29T09:34:47.262Z,3.60
2019-01-29T09:35:47.018Z,5.60
2019-01-29T09:36:46.993Z,4.00
2019-01-29T09:37:46.996Z,3.90
2019-01-29T09:38:47.216Z,4.80
2019-01-29T09:39:47.205Z,4.00
2019-01-29T09:40:47.170Z,4.20
2019-01-29T09:41:46.946Z,4.30
2019-01-29T09:42:47.188Z,4.80
2019-01-29T09:43:46.923Z,4.30
2019-01-29T09:44:46.916Z,5.10
2019-01-29T09:45:47.144Z,4.60
2019-01-29T09:46:47.131Z,4.50
2019-01-29T09:47:47.119Z,5.00
2019-01-29T09:48:46.893Z,4.00
2019-01-29T09:49:47.157Z,4.50
2019-01-29T09:50:47.143Z,4.50
2019-01-29T09:51:47.159Z,4.20
2019-01-29T09:52:46.874Z,4.80
2019-01-29T09:53:47.128Z,4.10
2019-01-29T09:54:47.147Z,4.60
2019-01-29T09:55:46.840Z,4.20
2019-01-29T09:56:46.878Z,5.00
2019-01-29T09:57:46.863Z,5.10
2019-01-29T09:58:46.827Z,4.20
2019-01-29T09:59:47.074Z,4.20
2019-01-29T10:00:47.098Z,5.10
2019-01-29T10:01:47.033Z,5.70
2019-01-29T10:02:47.064Z,5.10
2019-01-29T10:03:47.037Z,6.40
2019-01-29T10:04:47.055Z,5.30
2019-01-29T10:05:46.799Z,4.80
2019-01-29T10:06:47.020Z,5.50
2019-01-29T10:07:46.985Z,5.00
2019-01-29T10:08:46.753Z,5.80
2019-01-29T10:09:47.001Z,5.10
2019-01-29T10:10:46.974Z,4.80
2019-01-29T10:11:46.724Z,5.30
2019-01-29T10:12:46.750Z,5.20
2019-01-29T10:13:46.949Z,5.40
2019-01-29T10:14:47.001Z,5.10
2019-01-29T10:15:46.707Z,5.30
2019-01-29T10:16:46.966Z,4.80
2019-01-29T10:17:46.929Z,4.50
2019-01-29T10:18:46.946Z,4.40
2019-01-29T10:19:46.674Z,5.60
2019-01-29T10:20:46.680Z,5.30
2019-01-29T10:21:46.693Z,5.70
2019-01-29T10:22:46.903Z,5.00
2019-01-29T10:23:46.647Z,5.40
2019-01-29T10:24:46.645Z,5.30
2019-01-29T10:25:46.852Z,6.30
2019-01-29T10:26:46.859Z,5.30
2019-01-29T10:27:46.660Z,6.20
2019-01-29T10:28:46.883Z,5.50
2019-01-29T10:29:46.876Z,5.30
2019-01-29T10:30:46.639Z,5.80
2019-01-29T10:31:46.594Z,5.60
2019-01-29T10:32:46.627Z,5.40
2019-01-29T10:33:46.628Z,6.10
2019-01-29T10:34:46.839Z,5.90
2019-01-29T10:35:46.571Z,5.90
2019-01-29T10:36:46.858Z,6.30
2019-01-29T10:37:46.590Z,5.80
2019-01-29T10:38:46.830Z,6.40
2019-01-29T10:39:46.551Z,5.70
2019-01-29T10:40:46.798Z,6.00
2019-01-29T10:41:46.575Z,6.40
2019-01-29T10:42:46.516Z,6.40
2019-01-29T10:43:46.506Z,5.60
2019-01-29T10:44:46.771Z,6.00
2019-01-29T10:45:46.790Z,6.60
2019-01-29T10:46:46.748Z,6.10
2019-01-29T10:47:46.477Z,5.80
2019-01-29T10:48:46.521Z,6.10
2019-01-29T10:49:46.701Z,5.70
2019-01-29T10:50:46.716Z,6.50
2019-01-29T10:51:46.464Z,5.90
2019-01-29T10:52:46.682Z,6.80
2019-01-29T10:53:46.715Z,6.80
2019-01-29T10:54:46.704Z,6.30
2019-01-29T10:55:47.391Z,6.80
2019-01-29T10:56:46.644Z,7.20
2019-01-29T10:57:46.659Z,6.60
2019-01-29T10:58:46.667Z,8.10
2019-01-29T10:59:46.663Z,6.50
2019-01-29T11:00:46.649Z,6.30
2019-01-29T11:01:46.394Z,7.00
2019-01-29T11:02:46.650Z,7.00
2019-01-29T11:03:46.367Z,7.70
2019-01-29T11:04:46.403Z,7.20
2019-01-29T11:05:46.396Z,6.90
2019-01-29T11:06:46.655Z,7.00
2019-01-29T11:07:46.340Z,8.50
2019-01-29T11:08:46.349Z,7.90
2019-01-29T11:09:48.251Z,7.60
2019-01-29T11:10:46.566Z,7.40
2019-01-29T11:11:46.687Z,7.20
2019-01-29T11:12:46.714Z,7.40
2019-01-29T11:13:46.311Z,7.60
2019-01-29T11:14:46.290Z,7.70
2019-01-29T11:15:46.287Z,7.70
2019-01-29T11:16:46.701Z,7.30
2019-01-29T11:17:46.652Z,7.30
2019-01-29T11:18:46.269Z,6.80
2019-01-29T11:19:46.266Z,7.30
2019-01-29T11:20:46.496Z,7.10
2019-01-29T11:21:46.242Z,7.40
2019-01-29T11:22:46.540Z,7.60
2019-01-29T11:23:46.490Z,7.10
2019-01-29T11:24:46.260Z,7.80
2019-01-29T11:25:46.515Z,7.30
2019-01-29T11:26:46.467Z,6.80
2019-01-29T11:27:46.503Z,6.50
2019-01-29T11:28:46.768Z,7.30
2019-01-29T11:29:46.216Z,6.70
2019-01-29T11:30:46.443Z,7.80
2019-01-29T11:31:46.481Z,7.90
2019-01-29T11:32:46.216Z,7.70
2019-01-29T11:33:46.193Z,7.70
2019-01-29T11:34:46.426Z,8.00
2019-01-29T11:35:46.179Z,7.80
2019-01-29T11:36:46.193Z,7.30
2019-01-29T11:37:46.170Z,7.30
2019-01-29T11:38:46.362Z,7.50
2019-01-29T11:39:46.390Z,7.90
2019-01-29T11:40:46.366Z,7.30
2019-01-29T11:41:46.143Z,7.40
2019-01-29T11:42:46.100Z,7.60
2019-01-29T11:43:46.132Z,8.60
2019-01-29T11:44:46.097Z,7.80
2019-01-29T11:45:46.314Z,7.40
2019-01-29T11:46:46.120Z,7.00
2019-01-29T11:47:46.064Z,7.60
2019-01-29T11:48:46.102Z,9.00
2019-01-29T11:49:46.102Z,8.00
2019-01-29T11:50:46.050Z,7.20
2019-01-29T11:51:46.276Z,8.60
2019-01-29T11:52:46.323Z,7.90
2019-01-29T11:53:46.293Z,7.90
2019-01-29T11:54:46.253Z,7.80
2019-01-29T11:55:46.251Z,7.90
2019-01-29T11:56:46.049Z,7.70
2019-01-29T11:57:46.956Z,7.90
2019-01-29T11:58:46.293Z,8.60
2019-01-29T11:59:46.209Z,7.80
2019-01-29T12:00:46.234Z,7.70
2019-01-29T12:01:46.239Z,7.60
2019-01-29T12:02:46.199Z,7.60
2019-01-29T12:03:46.014Z,7.60
2019-01-29T12:04:46.243Z,7.60
2019-01-29T12:05:45.944Z,7.70
2019-01-29T12:06:46.236Z,7.30
2019-01-29T12:07:46.181Z,6.80
2019-01-29T12:08:45.957Z,7.30
2019-01-29T12:09:46.158Z,7.30
2019-01-29T12:10:46.282Z,7.70
2019-01-29T12:11:46.162Z,7.70
2019-01-29T12:12:46.136Z,7.50
2019-01-29T12:13:45.891Z,6.90
2019-01-29T12:14:45.882Z,7.70
2019-01-29T12:15:46.180Z,7.10
2019-01-29T12:16:45.897Z,7.70
2019-01-29T12:17:46.162Z,7.30
2019-01-29T12:18:45.857Z,7.20
2019-01-29T12:19:46.082Z,7.80
2019-01-29T12:20:46.099Z,7.30
2019-01-29T12:21:46.070Z,7.40
2019-01-29T12:22:45.878Z,7.50
2019-01-29T12:23:45.859Z,8.20
2019-01-29T12:24:45.865Z,8.00
2019-01-29T12:25:45.856Z,8.00
2019-01-29T12:26:45.813Z,8.40
2019-01-29T12:27:45.847Z,7.90
2019-01-29T12:28:45.801Z,8.20
2019-01-29T12:29:45.821Z,7.90
2019-01-29T12:30:46.017Z,8.20
2019-01-29T12:31:46.032Z,8.30
2019-01-29T12:32:46.067Z,7.90
2019-01-29T12:33:46.025Z,7.60
2019-01-29T12:34:46.048Z,7.40
2019-01-29T12:35:45.777Z,7.40
2019-01-29T12:36:46.053Z,7.70
2019-01-29T12:37:45.993Z,7.60
2019-01-29T12:38:45.720Z,7.40
2019-01-29T12:39:45.711Z,7.70
2019-01-29T12:40:45.997Z,7.90
2019-01-29T12:41:45.963Z,9.10
2019-01-29T12:42:45.699Z,7.10
2019-01-29T12:43:45.984Z,7.70
2019-01-29T12:44:45.950Z,8.60
2019-01-29T12:45:45.932Z,7.30
2019-01-29T12:46:45.881Z,8.20
2019-01-29T12:47:45.701Z,8.20
2019-01-29T12:48:45.881Z,8.40
2019-01-29T12:49:45.645Z,7.70
2019-01-29T12:50:45.673Z,8.10
2019-01-29T12:51:45.632Z,8.00
2019-01-29T12:52:45.662Z,8.20
2019-01-29T12:53:46.412Z,8.90
2019-01-29T12:54:45.832Z,8.50
2019-01-29T12:55:45.858Z,8.60
2019-01-29T12:56:45.858Z,8.30
2019-01-29T12:57:45.877Z,8.80
2019-01-29T12:58:45.868Z,8.10
2019-01-29T12:59:45.585Z,8.90
2019-01-29T13:00:45.797Z,7.80
2019-01-29T13:01:45.811Z,8.20
2019-01-29T13:02:45.817Z,8.40
2019-01-29T13:03:45.801Z,9.00
2019-01-29T13:04:45.801Z,8.20
2019-01-29T13:05:45.537Z,7.90
2019-01-29T13:06:45.754Z,8.80
2019-01-29T13:07:45.557Z,9.50
2019-01-29T13:08:45.527Z,8.20
2019-01-29T13:09:45.756Z,8.70
2019-01-29T13:10:45.768Z,8.40
2019-01-29T13:11:45.753Z,8.50
2019-01-29T13:12:45.721Z,8.50
2019-01-29T13:13:45.767Z,8.40
2019-01-29T13:14:45.733Z,8.20
2019-01-29T13:15:45.478Z,9.00
2019-01-29T13:16:45.452Z,8.00
2019-01-29T13:17:45.739Z,7.70
2019-01-29T13:18:45.712Z,8.30
2019-01-29T13:19:45.738Z,8.10
2019-01-29T13:20:45.437Z,8.10